»·PEaware :: DCM3021 KPSP-KLAS

DCM3021 :: KPSP-KLAS

FLIGHT INFORMATION

Flight Status: Arrived
Operator: Unknown
More flights by this operator :: More flights under this callsign
Pilot: James C. (15816)
Aircraft: CESSNA 510 CITATION MUSTANG
(C510)
More flights by this aircraft type
Origin: KPSP Palm Springs Intl
United States
Destination: KLAS McCarran Intl
United States
More flights between these airports :: More routes between these airports
Route: +CATH1 PSP TNP KEPEC6
File this flight plan on PilotEdge
Remarks:
Altitude:
(Current/Filed)
21,000ft
Speed:
(Current/Filed)
400kts
Departed: 09-Oct-18 04:27 PM
Arrived: 09-Oct-18 05:18 PM
Distance/Time
Traveled:
150nm/0:51
Distance/Time
To Go:
Arrived

Flight Plot

Page will automatically refresh every two minutes.

Flight plan parsing failed; only flown route is shown


Map Options




Map Legend


Flown Route
Filed Route
Departure Airport
Arrival Airport
Navaid (VOR, NDB)
Fix

Horizontal Profiles

Position Reports

Time Latitude Longitude Heading Altitude Ground
Speed
09-Oct-18 16:15 33.825793 -116.507933 270 479ft 0kts
09-Oct-18 16:16 33.825793 -116.507933 270 479ft 0kts
09-Oct-18 16:17 33.825793 -116.507933 270 479ft 0kts
09-Oct-18 16:18 33.825793 -116.507933 270 479ft 0kts
09-Oct-18 16:19 33.825793 -116.507933 270 479ft 0kts
09-Oct-18 16:20 33.825793 -116.507933 270 479ft 0kts
09-Oct-18 16:21 33.825793 -116.507933 270 479ft 0kts
09-Oct-18 16:22 33.825793 -116.507933 270 479ft 0kts
09-Oct-18 16:23 33.825793 -116.507933 270 479ft 0kts
09-Oct-18 16:24 33.825582 -116.508061 181 479ft 8kts
09-Oct-18 16:25 33.824856 -116.505418 145 479ft 11kts
09-Oct-18 16:26 33.820989 -116.501985 143 479ft 16kts
09-Oct-18 16:27 33.818528 -116.499235 90 479ft 7kts
09-Oct-18 16:28 33.818526 -116.499054 90 479ft 0kts
09-Oct-18 16:29 33.820649 -116.499592 324 479ft 59kts
09-Oct-18 16:30 33.849161 -116.526442 326 1857ft 165kts
09-Oct-18 16:31 33.886876 -116.500524 88 3935ft 222kts
09-Oct-18 16:32 33.865190 -116.423555 114 5983ft 261kts
09-Oct-18 16:33 33.879906 -116.342323 51 7004ft 271kts
09-Oct-18 16:34 33.924510 -116.267287 59 7022ft 276kts
09-Oct-18 16:35 33.960228 -116.184161 65 8361ft 281kts
09-Oct-18 16:36 33.991446 -116.101785 66 10723ft 263kts
09-Oct-18 16:37 34.021230 -116.019981 63 12731ft 269kts
09-Oct-18 16:38 34.051547 -115.936637 61 14598ft 273kts
09-Oct-18 16:39 34.082335 -115.852195 59 16399ft 276kts
09-Oct-18 16:40 34.113665 -115.768196 49 18151ft 269kts
09-Oct-18 16:41 34.165316 -115.707158 32 19789ft 258kts
09-Oct-18 16:42 34.220886 -115.647646 34 20807ft 282kts
09-Oct-18 16:43 34.283004 -115.578586 35 20818ft 321kts
09-Oct-18 16:44 34.350853 -115.512450 18 20830ft 305kts
09-Oct-18 16:45 34.430439 -115.479065 12 20831ft 303kts
09-Oct-18 16:46 34.511398 -115.446421 14 20805ft 301kts
09-Oct-18 16:47 34.591109 -115.413191 15 20817ft 298kts
09-Oct-18 16:48 34.665797 -115.378909 15 20472ft 281kts
09-Oct-18 16:49 34.738743 -115.348315 12 19323ft 276kts
09-Oct-18 16:50 34.814881 -115.338497 344 18409ft 267kts
09-Oct-18 16:51 34.886815 -115.365553 341 17630ft 273kts
09-Oct-18 16:52 34.960086 -115.394384 341 16838ft 279kts
09-Oct-18 16:53 35.032650 -115.424226 339 15651ft 265kts
09-Oct-18 16:54 35.103179 -115.453449 342 14598ft 275kts
09-Oct-18 16:55 35.177144 -115.480876 341 13958ft 272kts
09-Oct-18 16:56 35.250719 -115.508699 342 13566ft 279kts
09-Oct-18 16:57 35.325308 -115.537320 341 13181ft 283kts
09-Oct-18 16:58 35.400106 -115.566735 340 13038ft 281kts
09-Oct-18 16:59 35.472104 -115.597969 339 13036ft 273kts
09-Oct-18 17:00 35.544066 -115.627479 340 13038ft 272kts
09-Oct-18 17:01 35.616134 -115.656103 340 13023ft 272kts
09-Oct-18 17:02 35.690056 -115.650128 26 12309ft 282kts
09-Oct-18 17:03 35.750639 -115.587441 34 11769ft 285kts
09-Oct-18 17:04 35.826360 -115.568715 359 11427ft 280kts
09-Oct-18 17:05 35.904758 -115.566852 359 11061ft 281kts
09-Oct-18 17:06 35.974240 -115.530098 49 11029ft 291kts
09-Oct-18 17:07 36.011300 -115.441355 66 11009ft 294kts
09-Oct-18 17:08 36.029240 -115.343594 89 10509ft 294kts
09-Oct-18 17:09 36.022420 -115.242147 98 9720ft 299kts
09-Oct-18 17:10 36.014782 -115.145560 97 8713ft 276kts
09-Oct-18 17:11 36.008511 -115.051175 97 8023ft 269kts
09-Oct-18 17:12 36.009327 -114.960199 90 6858ft 253kts
09-Oct-18 17:13 36.011968 -114.874416 90 5158ft 242kts
09-Oct-18 17:14 36.047636 -114.814561 1 4986ft 249kts
09-Oct-18 17:15 36.088225 -114.862847 270 4973ft 201kts
09-Oct-18 17:16 36.076082 -114.934486 249 4976ft 224kts
09-Oct-18 17:17 36.073931 -115.009344 265 3777ft 215kts
09-Oct-18 17:18 36.073778 -115.069944 267 2958ft 116kts
09-Oct-18 17:19 36.073706 -115.107762 265 2414ft 111kts
09-Oct-18 17:20 36.073674 -115.136644 269 2117ft 34kts
09-Oct-18 17:21 36.074316 -115.144544 294 2117ft 0kts
09-Oct-18 17:22 36.074316 -115.144545 294 2117ft 0kts
09-Oct-18 17:23 36.076189 -115.146438 357 2117ft 15kts
09-Oct-18 17:24 36.077671 -115.147553 274 2117ft 16kts
09-Oct-18 17:25 36.077953 -115.154998 269 2117ft 18kts
09-Oct-18 17:26 36.077926 -115.163101 270 2117ft 27kts
09-Oct-18 17:27 36.077958 -115.164351 270 2117ft 0kts
09-Oct-18 17:28 36.077895 -115.168616 267 2117ft 11kts
09-Oct-18 17:29 36.080014 -115.169877 23 2117ft 16kts
09-Oct-18 17:30 36.081601 -115.170201 88 2117ft 2kts
09-Oct-18 17:31 36.081599 -115.170102 91 2117ft 0kts

Navigation Log

Ident Type
Flight plan parsing failed, navigation log unavailable